Aviation Digital Data Service (ADDS)

Output produced by METARs form (2050 UTC 29 August 2015)
found at http://aviationweather.gov/adds/metars/
 
KAUG 291727Z 2918/3018 20005KT P6SM BKN250 
     FM300000 00000KT P6SM SCT100 BKN250 
     FM301300 30007KT P6SM SCT100 BKN250